createdAt,value
2017-08-28T00:00:34.863Z,59.70
2017-08-28T00:03:02.390Z,60.00
2017-08-28T00:05:29.876Z,59.90
2017-08-28T00:07:57.424Z,60.20
2017-08-28T00:10:24.895Z,59.70
2017-08-28T00:12:52.392Z,59.60
2017-08-28T00:15:19.868Z,59.70
2017-08-28T00:17:47.347Z,59.70
2017-08-28T00:20:14.842Z,59.60
2017-08-28T00:22:42.377Z,59.50
2017-08-28T00:25:09.923Z,59.40
2017-08-28T00:27:37.392Z,59.40
2017-08-28T00:30:05.621Z,60.00
2017-08-28T00:32:33.115Z,60.00
2017-08-28T00:35:00.593Z,59.80
2017-08-28T00:37:28.091Z,59.80
2017-08-28T00:39:55.560Z,59.80
2017-08-28T00:42:23.045Z,59.80
2017-08-28T00:44:50.537Z,59.80
2017-08-28T00:47:18.009Z,59.90
2017-08-28T00:49:45.491Z,59.90
2017-08-28T00:52:12.964Z,60.00
2017-08-28T00:54:40.428Z,60.00
2017-08-28T00:57:07.910Z,60.10
2017-08-28T00:59:35.387Z,60.00
2017-08-28T01:02:02.887Z,60.20
2017-08-28T01:04:30.357Z,60.10
2017-08-28T01:06:57.833Z,60.30
2017-08-28T01:09:25.333Z,60.60
2017-08-28T01:11:52.803Z,60.80
2017-08-28T01:14:20.295Z,61.30
2017-08-28T01:16:47.763Z,61.80
2017-08-28T01:19:15.236Z,62.20
2017-08-28T01:21:42.787Z,62.20
2017-08-28T01:24:10.264Z,62.50
2017-08-28T01:26:37.807Z,62.70
2017-08-28T01:29:05.375Z,62.70
2017-08-28T01:31:32.927Z,63.20
2017-08-28T01:34:00.411Z,62.60
2017-08-28T01:36:27.880Z,63.00
2017-08-28T01:38:55.383Z,62.40
2017-08-28T01:41:22.856Z,62.40
2017-08-28T01:43:50.335Z,62.30
2017-08-28T01:46:17.819Z,61.90
2017-08-28T01:48:45.290Z,62.50
2017-08-28T01:51:12.793Z,62.70
2017-08-28T01:53:40.268Z,63.10
2017-08-28T01:56:07.737Z,63.60
2017-08-28T01:58:35.270Z,63.30
2017-08-28T02:01:02.748Z,63.30
2017-08-28T02:03:30.235Z,63.30
2017-08-28T02:05:57.707Z,63.30
2017-08-28T02:08:25.188Z,63.40
2017-08-28T02:10:52.672Z,63.30
2017-08-28T02:13:20.144Z,63.30
2017-08-28T02:15:47.680Z,63.30
2017-08-28T02:18:15.147Z,63.10
2017-08-28T02:20:42.620Z,63.10
2017-08-28T02:23:10.103Z,63.10
2017-08-28T02:25:37.573Z,63.80
2017-08-28T02:28:05.062Z,63.10
2017-08-28T02:30:32.527Z,63.00
2017-08-28T02:33:00.000Z,63.00
2017-08-28T02:35:27.551Z,63.60
2017-08-28T02:37:55.015Z,62.90
2017-08-28T02:40:22.516Z,62.80
2017-08-28T02:42:49.988Z,62.70
2017-08-28T02:45:17.472Z,62.50
2017-08-28T02:47:44.975Z,62.60
2017-08-28T02:50:12.441Z,63.10
2017-08-28T02:52:39.955Z,63.20
2017-08-28T02:55:07.430Z,63.20
2017-08-28T02:57:34.903Z,63.60
2017-08-28T03:00:02.428Z,63.60
2017-08-28T03:02:29.992Z,63.80
2017-08-28T03:04:57.547Z,63.80
2017-08-28T03:07:25.020Z,63.80
2017-08-28T03:09:52.501Z,64.10
2017-08-28T03:12:19.983Z,64.20
2017-08-28T03:14:47.464Z,64.00
2017-08-28T03:17:14.956Z,64.00
2017-08-28T03:19:42.496Z,64.10
2017-08-28T03:22:10.065Z,64.10
2017-08-28T03:24:37.553Z,63.80
2017-08-28T03:27:05.027Z,63.80
2017-08-28T03:29:32.532Z,63.60
2017-08-28T03:32:00.010Z,63.40
2017-08-28T03:34:27.488Z,63.20
2017-08-28T03:36:54.975Z,63.10
2017-08-28T03:39:22.444Z,63.00
2017-08-28T03:41:49.936Z,62.90
2017-08-28T03:44:17.410Z,62.70
2017-08-28T03:46:44.877Z,63.10
2017-08-28T03:49:12.359Z,63.00
2017-08-28T03:51:39.840Z,63.30
2017-08-28T03:54:07.336Z,62.80
2017-08-28T03:56:34.810Z,62.80
2017-08-28T03:59:02.284Z,62.90
2017-08-28T04:01:29.769Z,63.00
2017-08-28T04:03:57.239Z,62.90
2017-08-28T04:06:24.728Z,62.90
2017-08-28T04:08:52.216Z,62.80
2017-08-28T04:11:19.684Z,62.70
2017-08-28T04:13:47.164Z,62.70
2017-08-28T04:16:14.647Z,63.30
2017-08-28T04:18:42.144Z,62.50
2017-08-28T04:21:09.616Z,62.50
2017-08-28T04:23:37.093Z,62.50
2017-08-28T04:26:04.567Z,62.50
2017-08-28T04:28:32.047Z,62.60
2017-08-28T04:30:59.691Z,62.70
2017-08-28T04:33:27.255Z,62.70
2017-08-28T04:35:54.731Z,62.80
2017-08-28T04:38:22.219Z,62.70
2017-08-28T04:40:49.709Z,62.90
2017-08-28T04:43:17.284Z,62.90
2017-08-28T04:45:44.772Z,63.00
2017-08-28T04:48:12.321Z,62.80
2017-08-28T04:50:39.860Z,62.50
2017-08-28T04:53:07.328Z,62.40
2017-08-28T04:55:34.816Z,62.40
2017-08-28T04:58:02.295Z,62.20
2017-08-28T05:00:29.792Z,61.90
2017-08-28T05:02:57.275Z,61.90
2017-08-28T05:05:24.828Z,62.20
2017-08-28T05:07:52.380Z,62.00
2017-08-28T05:10:19.864Z,62.20
2017-08-28T05:12:47.367Z,62.30
2017-08-28T05:15:14.856Z,62.10
2017-08-28T05:17:42.336Z,61.90
2017-08-28T05:20:09.840Z,61.90
2017-08-28T05:22:37.320Z,61.80
2017-08-28T05:25:04.839Z,61.90
2017-08-28T05:27:32.319Z,61.60
2017-08-28T05:29:59.784Z,61.90
2017-08-28T05:32:27.267Z,61.90
2017-08-28T05:34:54.737Z,61.40
2017-08-28T05:37:22.204Z,61.60
2017-08-28T05:39:49.731Z,61.40
2017-08-28T05:42:17.211Z,61.40
2017-08-28T05:44:44.700Z,61.50
2017-08-28T05:47:12.171Z,61.60
2017-08-28T05:49:39.640Z,61.40
2017-08-28T05:52:07.142Z,61.20
2017-08-28T05:54:35.372Z,61.20
2017-08-28T05:57:02.875Z,61.20
2017-08-28T05:59:30.343Z,61.20
2017-08-28T06:01:57.814Z,61.00
2017-08-28T06:04:25.295Z,61.10
2017-08-28T06:06:52.776Z,61.20
2017-08-28T06:09:20.261Z,61.20
2017-08-28T06:11:47.737Z,61.20
2017-08-28T06:14:15.212Z,61.30
2017-08-28T06:16:42.733Z,61.30
2017-08-28T06:19:10.208Z,61.20
2017-08-28T06:21:37.744Z,61.20
2017-08-28T06:24:05.212Z,61.20
2017-08-28T06:26:32.687Z,61.00
2017-08-28T06:29:00.219Z,61.00
2017-08-28T06:31:27.693Z,61.10
2017-08-28T06:33:55.196Z,61.50
2017-08-28T06:36:22.669Z,61.20
2017-08-28T06:38:50.148Z,61.10
2017-08-28T06:41:17.711Z,61.10
2017-08-28T06:43:45.184Z,61.00
2017-08-28T06:46:12.672Z,61.00
2017-08-28T06:48:40.148Z,60.20
2017-08-28T06:51:07.615Z,60.30
2017-08-28T06:53:35.108Z,60.00
2017-08-28T06:56:02.583Z,60.10
2017-08-28T06:58:30.119Z,59.80
2017-08-28T07:00:57.685Z,59.70
2017-08-28T07:03:25.164Z,59.80
2017-08-28T07:05:52.651Z,59.40
2017-08-28T07:08:20.156Z,59.20
2017-08-28T07:10:47.660Z,58.90
2017-08-28T07:13:15.176Z,59.10
2017-08-28T07:15:42.649Z,58.90
2017-08-28T07:18:10.147Z,59.20
2017-08-28T07:20:37.616Z,58.70
2017-08-28T07:23:05.115Z,58.60
2017-08-28T07:25:32.603Z,58.50
2017-08-28T07:28:00.077Z,58.70
2017-08-28T07:30:27.566Z,58.60
2017-08-28T07:32:55.036Z,58.40
2017-08-28T07:35:22.520Z,58.00
2017-08-28T07:37:50.000Z,57.90
2017-08-28T07:40:17.524Z,57.40
2017-08-28T07:42:45.013Z,57.70
2017-08-28T07:45:12.535Z,57.90
2017-08-28T07:47:40.098Z,57.30
2017-08-28T07:50:07.567Z,57.50
2017-08-28T07:52:35.111Z,57.80
2017-08-28T07:55:02.600Z,57.40
2017-08-28T07:57:30.079Z,57.30
2017-08-28T07:59:57.599Z,57.00
2017-08-28T08:02:25.072Z,56.80
2017-08-28T08:04:52.542Z,56.60
2017-08-28T08:07:20.059Z,56.80
2017-08-28T08:09:47.540Z,56.20
2017-08-28T08:12:15.027Z,56.10
2017-08-28T08:14:42.500Z,55.20
2017-08-28T08:17:09.979Z,55.10
2017-08-28T08:19:37.468Z,55.00
2017-08-28T08:22:04.940Z,54.80
2017-08-28T08:24:32.511Z,54.80
2017-08-28T08:27:00.731Z,54.80
2017-08-28T08:29:28.207Z,54.50
2017-08-28T08:31:55.819Z,54.70
2017-08-28T08:34:24.273Z,54.90
2017-08-28T08:36:51.768Z,54.90
2017-08-28T08:39:19.247Z,54.80
2017-08-28T08:41:46.717Z,54.80
2017-08-28T08:44:14.203Z,54.80
2017-08-28T08:46:41.675Z,55.30
2017-08-28T08:49:09.239Z,54.80
2017-08-28T08:51:36.720Z,54.70
2017-08-28T08:54:04.204Z,54.30
2017-08-28T08:56:31.772Z,54.10
2017-08-28T08:58:59.243Z,53.80
2017-08-28T09:01:26.774Z,54.00
2017-08-28T09:03:54.248Z,53.70
2017-08-28T09:06:21.718Z,53.30
2017-08-28T09:08:49.202Z,52.80
2017-08-28T09:11:16.686Z,52.40
2017-08-28T09:13:44.183Z,52.00
2017-08-28T09:16:11.662Z,51.50
2017-08-28T09:18:39.155Z,51.70
2017-08-28T09:21:06.640Z,51.50
2017-08-28T09:23:34.112Z,51.30
2017-08-28T09:26:01.680Z,51.40
2017-08-28T09:28:29.160Z,51.60
2017-08-28T09:30:56.634Z,51.50
2017-08-28T09:33:24.131Z,51.50
2017-08-28T09:35:51.604Z,51.60
2017-08-28T09:38:19.112Z,51.30
2017-08-28T09:40:46.596Z,51.30
2017-08-28T09:43:14.060Z,50.50
2017-08-28T09:45:41.547Z,51.00
2017-08-28T09:48:09.027Z,50.80
2017-08-28T09:50:36.580Z,50.80
2017-08-28T09:53:04.053Z,50.30
2017-08-28T09:55:31.539Z,50.40
2017-08-28T09:57:59.041Z,50.30
2017-08-28T10:00:26.520Z,50.10
2017-08-28T10:02:54.025Z,50.00
2017-08-28T10:05:21.511Z,50.00
2017-08-28T10:07:48.989Z,49.80
2017-08-28T10:10:16.493Z,49.90
2017-08-28T10:12:43.971Z,49.70
2017-08-28T10:15:11.479Z,49.80
2017-08-28T10:17:38.952Z,49.00
2017-08-28T10:20:06.428Z,48.90
2017-08-28T10:22:33.928Z,49.40
2017-08-28T10:25:01.403Z,49.30
2017-08-28T10:27:28.416Z,49.00
2017-08-28T10:29:55.899Z,48.80
2017-08-28T18:37:54.768Z,52.90
2017-08-28T18:40:22.281Z,53.20
2017-08-28T18:42:49.768Z,53.60
2017-08-28T18:45:17.276Z,54.00
2017-08-28T18:47:44.761Z,54.40
2017-08-28T18:50:12.271Z,54.90
2017-08-28T18:52:40.672Z,55.20
2017-08-28T18:55:08.148Z,55.50
2017-08-28T18:57:35.675Z,56.30
2017-08-28T19:00:03.192Z,56.50
2017-08-28T19:02:30.700Z,56.80
2017-08-28T19:04:58.175Z,57.50
2017-08-28T19:07:25.655Z,57.50
2017-08-28T19:09:53.264Z,57.50
2017-08-28T19:12:20.748Z,57.50
2017-08-28T19:14:48.261Z,57.30
2017-08-28T19:17:15.755Z,57.70
2017-08-28T19:19:43.252Z,57.90
2017-08-28T19:22:10.763Z,58.20
2017-08-28T19:24:39.259Z,58.10
2017-08-28T19:27:06.776Z,58.30
2017-08-28T19:29:34.264Z,58.00
2017-08-28T19:32:01.741Z,58.40
2017-08-28T19:34:34.629Z,58.10
2017-08-28T19:37:02.125Z,57.90
2017-08-28T19:39:29.603Z,57.80
2017-08-28T19:41:57.107Z,58.10
2017-08-28T19:44:24.629Z,57.60
2017-08-28T19:46:52.130Z,57.60
2017-08-28T19:49:19.612Z,57.80
2017-08-28T19:51:47.092Z,58.00
2017-08-28T19:54:14.583Z,58.00
2017-08-28T19:56:42.095Z,58.20
2017-08-28T19:59:09.656Z,58.30
2017-08-28T20:01:40.986Z,58.60
2017-08-28T20:04:08.472Z,58.80
2017-08-28T20:06:35.967Z,58.40
2017-08-28T20:09:03.454Z,58.50
2017-08-28T20:11:30.964Z,58.60
2017-08-28T20:13:58.435Z,58.60
2017-08-28T20:16:25.932Z,58.70
2017-08-28T20:18:53.427Z,59.00
2017-08-28T20:21:20.919Z,59.10
2017-08-28T20:23:48.428Z,59.10
2017-08-28T20:26:15.922Z,59.30
2017-08-28T20:28:43.402Z,59.60
2017-08-28T20:31:10.896Z,59.90
2017-08-28T20:33:38.371Z,60.10
2017-08-28T20:36:05.887Z,60.40
2017-08-28T20:38:33.374Z,60.80
2017-08-28T20:41:00.867Z,61.00
2017-08-28T20:43:28.360Z,61.30
2017-08-28T20:45:55.857Z,61.60
2017-08-28T20:48:23.439Z,61.70
2017-08-28T20:50:50.924Z,62.00
2017-08-28T20:53:18.410Z,62.50
2017-08-28T20:55:45.918Z,62.90
2017-08-28T20:58:13.451Z,63.10
2017-08-28T21:00:40.968Z,63.40
2017-08-28T21:03:08.553Z,63.30
2017-08-28T21:05:36.042Z,63.50
2017-08-28T21:08:03.543Z,63.90
2017-08-28T21:10:31.028Z,65.10
2017-08-28T21:12:58.535Z,64.50
2017-08-28T21:15:26.024Z,64.90
2017-08-28T21:17:53.503Z,65.30
2017-08-28T21:20:21.044Z,65.40
2017-08-28T21:22:48.519Z,65.80
2017-08-28T21:25:16.022Z,66.00
2017-08-28T21:27:43.499Z,66.70
2017-08-28T21:30:10.976Z,66.60
2017-08-28T21:32:38.468Z,66.80
2017-08-28T21:35:05.948Z,67.30
2017-08-28T21:37:33.456Z,67.10
2017-08-28T21:40:00.958Z,67.40
2017-08-28T21:42:28.439Z,68.50
2017-08-28T21:44:55.937Z,68.30
2017-08-28T21:47:23.524Z,68.40
2017-08-28T21:49:51.035Z,68.50
2017-08-28T21:52:18.539Z,68.30
2017-08-28T21:54:46.023Z,68.30
2017-08-28T21:57:13.521Z,68.60
2017-08-28T21:59:40.995Z,68.10
2017-08-28T22:02:08.510Z,68.10
2017-08-28T22:04:35.996Z,68.10
2017-08-28T22:07:03.499Z,68.40
2017-08-28T22:09:30.994Z,68.20
2017-08-28T22:11:58.508Z,68.70
2017-08-28T22:14:26.012Z,68.70
2017-08-28T22:16:53.488Z,69.40
2017-08-28T22:19:20.975Z,68.50
2017-08-28T22:21:48.468Z,68.70
2017-08-28T22:24:15.960Z,68.70
2017-08-28T22:26:43.461Z,68.80
2017-08-28T22:29:10.948Z,69.10
2017-08-28T22:31:38.433Z,69.90
2017-08-28T22:34:05.942Z,69.10
2017-08-28T22:36:33.530Z,69.20
2017-08-28T22:39:01.051Z,69.30
2017-08-28T22:41:28.545Z,69.40
2017-08-28T22:43:56.036Z,69.80
2017-08-28T22:46:23.535Z,69.90
2017-08-28T22:48:51.008Z,70.30
2017-08-28T22:51:18.511Z,70.50
2017-08-28T22:53:45.987Z,70.50
2017-08-28T22:56:13.467Z,70.60
2017-08-28T22:58:40.971Z,70.80
2017-08-28T23:01:08.453Z,70.80
2017-08-28T23:03:35.955Z,71.00
2017-08-28T23:06:03.436Z,70.70
2017-08-28T23:08:30.941Z,70.80
2017-08-28T23:10:58.428Z,70.80
2017-08-28T23:13:25.914Z,70.90
2017-08-28T23:15:53.416Z,70.90
2017-08-28T23:18:20.915Z,71.10
2017-08-28T23:20:48.394Z,71.10
2017-08-28T23:23:15.883Z,71.30
2017-08-28T23:25:43.363Z,71.20
2017-08-28T23:28:10.866Z,71.20
2017-08-28T23:30:38.343Z,71.50
2017-08-28T23:33:05.828Z,71.10
2017-08-28T23:35:33.319Z,71.40
2017-08-28T23:38:00.802Z,71.40
2017-08-28T23:40:28.304Z,71.30
2017-08-28T23:42:55.787Z,71.20
2017-08-28T23:45:23.269Z,71.20
2017-08-28T23:47:50.763Z,71.10
2017-08-28T23:50:18.244Z,70.90
2017-08-28T23:52:45.740Z,71.20
2017-08-28T23:55:13.220Z,71.90
2017-08-28T23:57:40.704Z,71.00
